Time;durP1;ratioP1;P1;durP2;ratioP2;P2;SDS_P1;SDS_P2;PMS_P1;PMS_P2;Temp;Humidity;BMP_temperature;BMP_pressure;BME280_temperature;BME280_humidity;BME280_pressure;Samples;Min_cycle;Max_cycle;Signal;HPM_P1;HPM_P2
2021/12/05 00:23:19;;;;;;;9.80;3.45;;;4.30;99.90;;;;;;5075236;28;20141;-67
2021/12/05 00:25:47;;;;;;;10.00;3.85;;;4.40;99.90;;;;;;5091043;28;20357;-67
2021/12/05 00:37:27;;;;;;;11.63;3.70;;;4.40;99.90;;;;;;5042365;28;20436;-67
2021/12/05 00:39:49;;;;;;;8.63;3.25;;;4.40;99.90;;;;;;5090283;28;20105;-68
2021/12/05 01:01:13;;;;;;;11.40;3.58;;;4.40;99.90;;;;;;5094891;28;20056;-67
2021/12/05 01:09:33;;;;;;;13.43;4.35;;;4.40;99.90;;;;;;5095073;28;20139;-67
2021/12/05 01:14:34;;;;;;;12.30;4.35;;;4.40;99.90;;;;;;5093802;28;20056;-67
2021/12/05 01:17:02;;;;;;;10.23;4.00;;;4.30;99.90;;;;;;5096071;28;20102;-68
2021/12/05 01:19:31;;;;;;;11.05;4.70;;;4.30;99.90;;;;;;5094892;28;20040;-68
2021/12/05 01:22:02;;;;;;;10.52;4.03;;;4.30;99.90;;;;;;5094663;28;20491;-67
2021/12/05 01:29:40;;;;;;;10.73;4.47;;;4.30;99.90;;;;;;5094394;28;20063;-67
2021/12/05 01:32:22;;;;;;;15.18;5.25;;;4.30;99.90;;;;;;5094113;28;20075;-68
2021/12/05 01:56:02;;;;;;;21.70;7.60;;;4.20;99.90;;;;;;5094432;28;20039;-67
2021/12/05 01:58:48;;;;;;;17.17;7.70;;;4.20;99.90;;;;;;5093475;28;20096;-67
2021/12/05 02:31:51;;;;;;;20.52;9.25;;;4.10;99.90;;;;;;5092546;28;20044;-67
2021/12/05 02:42:35;;;;;;;17.48;8.93;;;4.00;99.90;;;;;;5093177;28;20346;-68
2021/12/05 02:45:05;;;;;;;23.75;10.07;;;4.00;99.90;;;;;;5093711;28;20047;-67
2021/12/05 02:47:30;;;;;;;21.55;9.45;;;3.90;99.90;;;;;;5093136;28;20118;-67
2021/12/05 02:49:59;;;;;;;20.20;10.00;;;3.90;99.90;;;;;;5076322;28;20123;-67
2021/12/05 02:52:32;;;;;;;22.48;10.35;;;3.90;99.90;;;;;;5092754;28;20409;-68
2021/12/05 02:55:10;;;;;;;24.65;10.45;;;4.00;99.90;;;;;;5074273;28;20067;-67
2021/12/05 03:00:19;;;;;;;27.92;9.45;;;3.90;99.90;;;;;;5091959;28;20059;-68
2021/12/05 03:02:47;;;;;;;23.75;10.27;;;3.90;99.90;;;;;;5093538;28;20040;-68
2021/12/05 03:05:18;;;;;;;23.05;9.70;;;3.90;99.90;;;;;;5093028;28;20460;-68
2021/12/05 03:07:47;;;;;;;24.23;9.38;;;3.90;99.90;;;;;;5092890;28;20079;-69
2021/12/05 03:10:17;;;;;;;19.80;9.20;;;3.90;99.90;;;;;;5075969;28;20115;-67
2021/12/05 03:12:45;;;;;;;23.35;9.43;;;3.90;99.90;;;;;;5092013;28;20085;-67
2021/12/05 03:15:15;;;;;;;22.40;8.68;;;3.80;99.90;;;;;;5092462;28;20063;-68
2021/12/05 03:17:42;;;;;;;19.90;9.27;;;3.80;99.90;;;;;;5075675;28;20039;-67
2021/12/05 03:20:09;;;;;;;21.23;9.27;;;3.80;99.90;;;;;;5092651;28;20040;-69
2021/12/05 03:22:35;;;;;;;17.42;8.32;;;3.80;99.90;;;;;;5092255;28;20047;-68
2021/12/05 03:25:03;;;;;;;20.42;8.85;;;3.80;99.90;;;;;;5093700;28;20047;-67
2021/12/05 03:27:29;;;;;;;19.83;8.38;;;3.70;99.90;;;;;;5093595;28;20043;-66
2021/12/05 03:29:54;;;;;;;20.45;8.90;;;3.70;99.90;;;;;;5092276;28;20445;-69
2021/12/05 03:32:20;;;;;;;22.85;8.00;;;3.60;99.90;;;;;;5092319;28;20040;-68
2021/12/05 03:34:46;;;;;;;21.83;7.72;;;3.60;99.90;;;;;;5092216;28;20518;-68
2021/12/05 03:37:12;;;;;;;14.23;7.28;;;3.60;99.90;;;;;;5092089;28;20048;-67
2021/12/05 03:39:38;;;;;;;18.85;7.65;;;3.60;99.90;;;;;;5092297;28;20109;-68
2021/12/05 03:42:06;;;;;;;17.48;7.47;;;3.50;99.90;;;;;;5092215;28;20046;-67
2021/12/05 03:44:34;;;;;;;15.13;7.50;;;3.50;99.90;;;;;;5092724;28;20522;-67
2021/12/05 03:47:01;;;;;;;20.52;7.07;;;3.50;99.90;;;;;;5092310;28;20047;-67
2021/12/05 03:49:28;;;;;;;19.05;7.35;;;3.40;99.90;;;;;;5092498;28;20354;-67
2021/12/05 03:52:02;;;;;;;20.35;6.80;;;3.50;99.90;;;;;;5093384;28;20040;-67
2021/12/05 03:54:28;;;;;;;;;;;3.40;99.90;;;;;;5074405;28;20051;-67
2021/12/05 03:56:54;;;;;;;19.13;6.40;;;3.40;99.90;;;;;;5073338;28;20019;-66
2021/12/05 03:59:20;;;;;;;20.50;7.10;;;3.40;99.90;;;;;;5084986;28;20097;-67
2021/12/05 04:01:47;;;;;;;16.73;6.90;;;3.30;99.90;;;;;;5091647;28;20055;-68
2021/12/05 04:04:13;;;;;;;18.73;6.72;;;3.30;99.90;;;;;;5092587;28;20044;-67
2021/12/05 04:06:39;;;;;;;14.63;5.97;;;3.30;99.90;;;;;;5092029;28;20461;-68
2021/12/05 04:09:08;;;;;;;15.43;6.32;;;3.30;99.90;;;;;;5092906;28;20036;-68
2021/12/05 04:11:39;;;;;;;17.70;6.72;;;3.20;99.90;;;;;;5091421;28;20450;-67
2021/12/05 04:14:07;;;;;;;17.33;6.47;;;3.20;99.90;;;;;;5092332;28;20072;-68
2021/12/05 04:16:33;;;;;;;15.13;6.38;;;3.20;99.90;;;;;;5074591;28;20040;-67
2021/12/05 04:18:59;;;;;;;19.05;6.00;;;3.10;99.90;;;;;;5092634;28;20468;-67
2021/12/05 04:21:25;;;;;;;16.70;5.93;;;3.10;99.90;;;;;;5093215;28;20036;-67
2021/12/05 04:23:51;;;;;;;21.08;5.80;;;3.10;99.90;;;;;;5092227;28;20046;-67
2021/12/05 04:26:18;;;;;;;13.20;5.45;;;3.10;99.90;;;;;;5074998;28;20372;-67
2021/12/05 04:28:44;;;;;;;17.88;5.20;;;3.10;99.90;;;;;;5091427;28;20114;-67
2021/12/05 04:31:14;;;;;;;18.80;5.88;;;3.10;99.90;;;;;;5092495;28;20056;-66
2021/12/05 04:33:40;;;;;;;16.60;5.28;;;3.00;99.90;;;;;;5092865;28;20036;-68
2021/12/05 04:36:06;;;;;;;19.30;5.60;;;3.00;99.90;;;;;;5075239;28;20059;-68
2021/12/05 04:38:32;;;;;;;17.65;5.60;;;3.00;99.90;;;;;;5092702;28;20036;-67
2021/12/05 04:40:58;;;;;;;16.17;5.55;;;3.00;99.90;;;;;;5092213;28;20040;-66
2021/12/05 04:43:23;;;;;;;15.23;5.30;;;3.00;99.90;;;;;;5091660;28;20047;-67
2021/12/05 04:45:49;;;;;;;15.38;5.05;;;2.90;99.90;;;;;;5091659;28;20043;-67
2021/12/05 04:48:16;;;;;;;13.23;5.00;;;2.90;99.90;;;;;;5092118;28;20052;-67
2021/12/05 04:50:42;;;;;;;14.82;5.28;;;2.90;99.90;;;;;;5096662;28;20395;-67
2021/12/05 04:53:08;;;;;;;19.95;5.50;;;2.80;99.90;;;;;;5089116;28;20107;-68
2021/12/05 04:55:35;;;;;;;15.10;4.80;;;2.80;99.90;;;;;;5058505;28;20036;-66
2021/12/05 04:58:04;;;;;;;17.25;4.97;;;2.80;99.90;;;;;;5076429;28;20033;-67
2021/12/05 05:00:39;;;;;;;16.63;4.75;;;2.80;99.90;;;;;;5094828;28;20085;-67
2021/12/05 05:03:04;;;;;;;;;;;2.80;99.90;;;;;;5095698;28;20044;-67
2021/12/05 05:05:31;;;;;;;19.35;5.00;;;2.80;99.90;;;;;;5095593;28;20384;-67
2021/12/05 05:07:58;;;;;;;15.30;4.78;;;2.70;99.90;;;;;;5096359;28;20050;-67
2021/12/05 05:10:29;;;;;;;16.17;5.22;;;2.70;99.90;;;;;;5094749;28;20048;-68
2021/12/05 05:12:56;;;;;;;21.67;5.13;;;2.80;99.90;;;;;;5094452;28;20106;-67
2021/12/05 05:15:26;;;;;;;12.45;4.68;;;2.80;99.90;;;;;;5096255;28;20063;-67
2021/12/05 05:17:53;;;;;;;15.75;4.57;;;2.80;99.90;;;;;;5094719;28;20095;-67
2021/12/05 05:23:30;;;;;;;15.05;4.35;;;2.80;99.90;;;;;;5095532;28;20053;-67
2021/12/05 05:26:30;;;;;;;15.57;4.65;;;2.90;99.90;;;;;;5094952;28;20090;-67
2021/12/05 05:48:02;;;;;;;15.27;4.47;;;3.30;99.90;;;;;;5094454;28;20430;-67
2021/12/05 05:50:28;;;;;;;15.32;5.30;;;3.30;99.90;;;;;;5094847;28;20054;-66
2021/12/05 05:52:54;;;;;;;14.15;5.38;;;3.40;99.90;;;;;;5088825;28;20128;-66
2021/12/05 05:55:20;;;;;;;14.20;5.53;;;3.30;99.90;;;;;;5073648;28;20127;-66
2021/12/05 05:57:59;;;;;;;16.67;5.30;;;3.40;99.90;;;;;;5073777;28;20044;-68
2021/12/05 06:00:35;;;;;;;18.38;5.38;;;3.40;99.90;;;;;;5092849;28;20040;-66
2021/12/05 06:06:07;;;;;;;17.02;5.72;;;3.50;99.90;;;;;;5095062;28;20048;-66
2021/12/05 06:08:36;;;;;;;16.13;5.93;;;3.50;99.90;;;;;;5093985;28;20040;-66
2021/12/05 06:11:05;;;;;;;16.90;6.93;;;3.50;99.90;;;;;;5093251;28;20101;-66
2021/12/05 06:13:31;;;;;;;18.00;6.43;;;3.60;99.90;;;;;;5093965;28;20036;-66
2021/12/05 06:15:57;;;;;;;15.05;6.78;;;3.50;99.90;;;;;;5093648;28;20043;-66
2021/12/05 06:18:24;;;;;;;16.30;7.50;;;3.60;99.90;;;;;;5093644;28;20071;-66
2021/12/05 06:20:51;;;;;;;17.83;7.18;;;3.60;99.90;;;;;;5094718;28;20055;-66
2021/12/05 06:23:17;;;;;;;18.27;7.57;;;3.60;99.90;;;;;;5094473;28;20115;-66
2021/12/05 06:25:45;;;;;;;18.23;7.32;;;3.60;99.90;;;;;;5094884;28;20198;-66
2021/12/05 06:28:13;;;;;;;16.55;7.07;;;3.60;99.90;;;;;;5093328;28;20126;-66
2021/12/05 06:31:13;;;;;;;18.38;7.22;;;3.70;99.90;;;;;;5074311;28;20056;-67
2021/12/05 06:41:49;;;;;;;17.42;7.95;;;3.70;99.90;;;;;;5093903;28;20395;-67
2021/12/05 06:47:00;;;;;;;20.27;7.60;;;3.70;99.90;;;;;;5094258;28;20044;-66
2021/12/05 06:49:26;;;;;;;19.95;7.82;;;3.70;99.90;;;;;;5094000;28;20040;-67
2021/12/05 06:51:52;;;;;;;19.95;7.60;;;3.80;99.90;;;;;;5092809;28;20472;-67
2021/12/05 06:54:17;;;;;;;13.15;7.10;;;3.80;99.90;;;;;;5077314;28;20435;-68
2021/12/05 06:56:43;;;;;;;16.42;8.30;;;3.80;99.90;;;;;;5072590;28;20024;-68
2021/12/05 06:59:09;;;;;;;17.02;7.60;;;3.80;99.90;;;;;;5081047;28;20036;-66
2021/12/05 07:01:34;;;;;;;18.73;7.63;;;3.80;99.90;;;;;;5092377;28;20133;-64
2021/12/05 07:04:08;;;;;;;16.63;7.53;;;3.90;99.90;;;;;;5093933;28;20040;-65
2021/12/05 07:06:34;;;;;;;17.58;7.85;;;3.80;99.90;;;;;;5081345;28;20080;-64
2021/12/05 07:09:06;;;;;;;16.77;7.95;;;3.90;99.90;;;;;;5075879;28;20036;-65
2021/12/05 07:12:22;;;;;;;17.98;8.10;;;3.90;99.90;;;;;;5071838;28;20131;-65
2021/12/05 07:17:03;;;;;;;17.92;8.43;;;3.90;99.90;;;;;;5071613;28;20044;-64
2021/12/05 07:22:18;;;;;;;22.35;9.00;;;3.90;99.90;;;;;;5091861;28;20032;-66
2021/12/05 07:24:51;;;;;;;20.38;8.63;;;3.90;99.90;;;;;;5087009;28;20044;-66
2021/12/05 07:43:58;;;;;;;17.30;8.95;;;4.00;99.90;;;;;;5069081;28;20097;-66
2021/12/05 07:46:23;;;;;;;19.08;9.23;;;4.00;99.90;;;;;;5091774;28;20457;-66
2021/12/05 07:48:49;;;;;;;19.92;9.52;;;4.10;99.90;;;;;;5070217;28;20094;-66
2021/12/05 07:51:24;;;;;;;16.13;8.68;;;4.10;99.90;;;;;;5072387;28;20036;-67
2021/12/05 07:56:49;;;;;;;15.65;7.75;;;4.10;99.90;;;;;;5092639;28;20044;-67
2021/12/05 08:15:39;;;;;;;17.52;8.43;;;4.20;99.90;;;;;;5071888;28;20374;-66
2021/12/05 08:18:05;;;;;;;15.73;8.48;;;4.20;99.90;;;;;;5072012;28;20161;-65
2021/12/05 08:20:34;;;;;;;16.00;9.18;;;4.20;99.90;;;;;;5091299;28;20028;-67
2021/12/05 08:23:02;;;;;;;18.45;9.10;;;4.20;99.90;;;;;;5092815;28;20040;-65
2021/12/05 08:25:33;;;;;;;16.48;8.63;;;4.20;99.90;;;;;;5095250;28;20086;-66
2021/12/05 08:28:22;;;;;;;18.85;8.80;;;4.20;99.90;;;;;;5078136;28;20042;-66
2021/12/05 08:30:58;;;;;;;16.70;8.50;;;4.20;99.90;;;;;;5074089;28;20040;-65
2021/12/05 09:24:41;;;;;;;15.13;7.85;;;4.30;99.90;;;;;;5076144;28;19959;-63
2021/12/05 10:08:45;;;;;;;14.25;5.70;;;4.50;99.90;;;;;;5093485;28;20043;-65
2021/12/05 10:38:13;;;;;;;15.85;7.90;;;4.60;99.90;;;;;;5074112;28;20036;-66
2021/12/05 10:40:58;;;;;;;13.15;6.57;;;4.60;99.90;;;;;;5073162;28;20648;-67
2021/12/05 10:43:26;;;;;;;13.38;7.68;;;4.60;99.90;;;;;;5058583;28;20052;-66
2021/12/05 10:45:56;;;;;;;10.38;5.82;;;4.60;99.90;;;;;;5039452;28;20036;-69
2021/12/05 10:48:29;;;;;;;13.93;7.18;;;4.60;99.90;;;;;;5072179;28;20044;-67
2021/12/05 10:51:07;;;;;;;13.07;8.60;;;4.70;99.90;;;;;;5073262;28;20074;-68
2021/12/05 10:53:43;;;;;;;11.80;6.53;;;4.70;99.90;;;;;;5071748;28;20483;-69
2021/12/05 10:56:16;;;;;;;13.13;7.32;;;4.70;99.90;;;;;;5072030;28;20052;-66
2021/12/05 10:58:50;;;;;;;17.13;8.25;;;4.70;99.90;;;;;;5080439;28;20579;-65
2021/12/05 11:01:26;;;;;;;17.17;7.82;;;4.70;99.90;;;;;;5071706;28;20037;-68
2021/12/05 11:04:01;;;;;;;17.08;8.02;;;4.80;99.90;;;;;;5072073;28;20036;-63
2021/12/05 11:06:29;;;;;;;16.23;7.55;;;4.80;99.90;;;;;;5073119;28;20044;-64
2021/12/05 11:08:58;;;;;;;16.30;8.02;;;4.80;99.90;;;;;;5077592;28;20036;-61
2021/12/05 11:11:25;;;;;;;13.93;7.30;;;4.90;99.90;;;;;;5086237;28;20060;-67
2021/12/05 11:13:51;;;;;;;14.15;6.72;;;4.90;99.90;;;;;;5076558;28;20400;-65
2021/12/05 11:16:53;;;;;;;13.90;6.18;;;4.90;99.90;;;;;;5071706;28;20123;-67
2021/12/05 11:19:25;;;;;;;14.07;6.70;;;5.00;99.90;;;;;;5060274;28;20372;-67
2021/12/05 11:21:58;;;;;;;11.63;6.20;;;5.00;99.90;;;;;;5085799;28;20029;-66
2021/12/05 11:24:27;;;;;;;11.43;6.38;;;5.00;99.90;;;;;;5073102;28;20040;-65
2021/12/05 11:27:13;;;;;;;10.65;5.03;;;5.00;99.90;;;;;;5073773;28;20040;-69
2021/12/05 11:29:42;;;;;;;11.40;7.03;;;5.20;99.90;;;;;;5081324;28;20097;-69
2021/12/05 11:32:30;;;;;;;11.35;5.68;;;5.20;99.90;;;;;;5091082;28;20044;-70
2021/12/05 11:34:55;;;;;;;10.93;5.25;;;5.30;99.90;;;;;;5091838;28;20101;-70
2021/12/05 11:37:21;;;;;;;8.73;5.22;;;5.30;99.90;;;;;;5071958;28;20386;-69
2021/12/05 11:39:48;;;;;;;10.57;5.85;;;5.40;99.90;;;;;;5083288;28;20506;-70
2021/12/05 11:42:21;;;;;;;10.50;5.55;;;5.40;99.90;;;;;;5085958;28;20576;-70
2021/12/05 11:44:52;;;;;;;10.93;5.50;;;5.50;99.90;;;;;;5055915;28;20036;-70
2021/12/05 11:47:21;;;;;;;8.32;5.10;;;5.50;99.90;;;;;;5071987;28;20032;-71
2021/12/05 11:49:46;;;;;;;8.15;5.40;;;5.60;99.90;;;;;;5083974;28;20043;-70
2021/12/05 11:52:12;;;;;;;8.18;4.95;;;5.70;99.90;;;;;;5092047;28;20357;-64
2021/12/05 11:54:46;;;;;;;10.30;5.25;;;6.00;99.90;;;;;;5092140;28;20048;-72
2021/12/05 11:57:29;;;;;;;8.40;4.70;;;6.20;99.90;;;;;;5092444;28;20044;-71
2021/12/05 12:00:08;;;;;;;9.55;7.20;;;6.30;99.90;;;;;;5079404;28;20054;-73
2021/12/05 12:02:36;;;;;;;7.07;4.88;;;6.30;99.90;;;;;;5095978;28;20169;-70
2021/12/05 12:05:18;;;;;;;8.23;5.40;;;6.50;99.90;;;;;;5079139;28;20555;-70
2021/12/05 12:08:07;;;;;;;9.63;5.18;;;6.70;99.90;;;;;;5072791;28;20048;-71
2021/12/05 12:10:50;;;;;;;7.05;4.88;;;6.70;99.90;;;;;;5076991;28;20119;-71
2021/12/05 12:13:19;;;;;;;7.95;4.80;;;6.70;99.90;;;;;;5064542;28;20139;-71
2021/12/05 12:15:57;;;;;;;7.18;5.35;;;6.80;99.90;;;;;;5073901;28;20159;-72
2021/12/05 12:18:31;;;;;;;7.50;5.10;;;6.90;99.90;;;;;;5058652;28;20044;-71
2021/12/05 12:21:07;;;;;;;6.13;4.35;;;6.80;99.90;;;;;;5075767;28;20082;-72
2021/12/05 12:23:34;;;;;;;10.10;4.30;;;6.80;99.90;;;;;;5075913;28;20033;-72
2021/12/05 12:26:03;;;;;;;7.10;4.40;;;6.90;99.90;;;;;;5061399;28;20103;-71
2021/12/05 12:28:29;;;;;;;7.03;4.47;;;6.90;99.90;;;;;;5075941;28;20040;-72
2021/12/05 12:31:19;;;;;;;8.02;4.57;;;6.90;99.90;;;;;;5095289;28;20043;-72
2021/12/05 12:33:57;;;;;;;7.45;4.53;;;7.00;99.90;;;;;;5095299;28;20044;-72
2021/12/05 12:36:51;;;;;;;45.83;17.13;;;7.10;99.90;;;;;;5095925;28;20048;-71
2021/12/05 12:39:17;;;;;;;8.02;4.85;;;7.00;99.90;;;;;;5095538;28;20028;-72
2021/12/05 12:42:15;;;;;;;9.35;4.75;;;7.00;99.90;;;;;;5095486;28;20043;-71
2021/12/05 12:45:06;;;;;;;6.72;4.78;;;7.00;99.90;;;;;;5095591;28;20044;-71
2021/12/05 12:47:33;;;;;;;7.68;4.60;;;7.00;99.90;;;;;;5095728;28;20333;-72
2021/12/05 12:50:18;;;;;;;8.30;5.32;;;6.90;99.90;;;;;;5076279;28;20563;-65
2021/12/05 12:53:15;;;;;;;8.85;5.00;;;7.00;99.90;;;;;;5058624;28;20059;-71
2021/12/05 12:56:03;;;;;;;6.97;4.43;;;7.00;99.90;;;;;;5075246;28;20044;-71
2021/12/05 12:58:54;;;;;;;8.13;4.57;;;7.00;99.90;;;;;;5076315;28;20062;-70
2021/12/05 13:10:09;;;;;;;6.95;4.68;;;6.90;99.90;;;;;;5074879;28;20040;-72
2021/12/05 13:12:41;;;;;;;7.65;4.68;;;6.80;99.90;;;;;;5073956;28;20049;-73
2021/12/05 13:15:10;;;;;;;8.75;4.72;;;6.80;99.90;;;;;;5074831;28;20055;-72
2021/12/05 13:18:00;;;;;;;6.25;4.95;;;6.80;99.90;;;;;;5058663;28;20045;-73
2021/12/05 13:20:53;;;;;;;8.02;5.75;;;6.80;99.90;;;;;;5059577;28;20044;-72
2021/12/05 13:23:34;;;;;;;6.07;4.25;;;6.80;99.90;;;;;;5066142;28;20052;-72
2021/12/05 13:26:12;;;;;;;5.97;4.50;;;6.90;99.90;;;;;;5084135;28;20070;-70
2021/12/05 13:28:41;;;;;;;7.38;4.40;;;6.70;99.90;;;;;;5075097;28;20629;-72
2021/12/05 13:31:42;;;;;;;6.55;4.10;;;6.90;99.90;;;;;;5058339;28;20032;-70
2021/12/05 13:34:31;;;;;;;6.80;4.15;;;6.90;99.90;;;;;;4980562;28;20049;-70
2021/12/05 13:37:05;;;;;;;7.78;4.00;;;7.00;99.90;;;;;;5053077;28;20053;-69
2021/12/05 13:39:39;;;;;;;;;;;7.00;99.90;;;;;;5083228;28;20067;-71
2021/12/05 13:42:16;;;;;;;7.47;4.78;;;7.00;99.90;;;;;;5094054;28;19966;-70
2021/12/05 13:45:03;;;;;;;6.97;3.72;;;7.00;99.90;;;;;;5077406;28;20106;-70
2021/12/05 13:47:52;;;;;;;7.95;4.43;;;7.00;99.90;;;;;;5077161;28;20050;-72
2021/12/05 13:50:25;;;;;;;10.40;4.85;;;7.00;99.90;;;;;;5093427;28;20093;-72
2021/12/05 13:53:00;;;;;;;6.80;4.47;;;7.00;99.90;;;;;;5068774;28;20046;-67
2021/12/05 13:55:34;;;;;;;;;;;6.90;99.90;;;;;;5072539;28;20046;-70
2021/12/05 13:58:21;;;;;;;6.55;4.65;;;6.90;99.90;;;;;;5072416;28;19954;-70
2021/12/05 14:01:05;;;;;;;8.35;4.40;;;6.90;99.90;;;;;;5092385;28;20451;-71
2021/12/05 14:04:08;;;;;;;6.57;4.25;;;6.90;99.90;;;;;;5077598;28;20040;-69
2021/12/05 14:06:54;;;;;;;7.82;4.75;;;6.90;99.90;;;;;;5094083;28;20061;-70
2021/12/05 14:09:32;;;;;;;8.75;6.03;;;6.90;99.90;;;;;;5092131;28;20071;-70
2021/12/05 14:12:18;;;;;;;7.75;4.80;;;6.90;99.90;;;;;;5090031;28;20121;-70
2021/12/05 14:15:02;;;;;;;10.18;4.65;;;6.70;99.90;;;;;;5092661;28;20052;-70
2021/12/05 14:17:39;;;;;;;8.52;4.70;;;6.50;99.90;;;;;;5092228;28;20236;-70
2021/12/05 14:20:17;;;;;;;9.88;4.70;;;6.30;99.90;;;;;;5093737;28;20055;-71
2021/12/05 14:22:46;;;;;;;6.45;4.38;;;6.20;99.90;;;;;;5093906;28;20039;-71
2021/12/05 14:25:16;;;;;;;8.52;5.65;;;6.10;99.90;;;;;;5094103;28;20139;-71
2021/12/05 14:27:55;;;;;;;8.40;5.68;;;6.10;99.90;;;;;;5094398;28;20040;-71
2021/12/05 14:30:23;;;;;;;6.90;4.70;;;6.10;99.90;;;;;;5093411;28;20040;-70
2021/12/05 14:32:57;;;;;;;6.80;4.38;;;6.00;99.90;;;;;;5093436;28;20052;-71
2021/12/05 14:35:28;;;;;;;6.80;4.30;;;6.00;99.90;;;;;;5076912;28;20357;-71
2021/12/05 14:37:55;;;;;;;6.13;4.45;;;6.00;99.90;;;;;;5094795;28;20054;-71
2021/12/05 14:40:30;;;;;;;6.85;4.10;;;6.00;99.90;;;;;;5093027;28;20051;-71
2021/12/05 14:43:03;;;;;;;7.28;4.22;;;5.90;99.90;;;;;;5076520;28;20032;-70
2021/12/05 14:45:32;;;;;;;7.32;4.32;;;5.90;99.90;;;;;;5093462;28;20086;-70
2021/12/05 14:48:02;;;;;;;7.50;4.60;;;5.90;99.90;;;;;;5093473;28;20055;-70
2021/12/05 14:50:31;;;;;;;6.22;4.38;;;5.90;99.90;;;;;;5076407;28;20101;-71
2021/12/05 14:53:00;;;;;;;6.43;4.43;;;5.80;99.90;;;;;;5076466;28;20408;-71
2021/12/05 14:55:29;;;;;;;7.63;4.38;;;5.80;99.90;;;;;;5093217;28;20044;-70
2021/12/05 14:57:58;;;;;;;8.25;4.82;;;5.70;99.90;;;;;;5093385;28;20044;-71
2021/12/05 15:00:33;;;;;;;6.70;4.65;;;5.70;99.90;;;;;;5092619;28;20047;-71
2021/12/05 15:03:21;;;;;;;6.90;4.78;;;5.70;99.90;;;;;;5093226;28;20047;-71
2021/12/05 15:05:51;;;;;;;8.10;5.30;;;5.70;99.90;;;;;;5093093;28;20071;-71
2021/12/05 15:08:22;;;;;;;7.90;5.15;;;5.60;99.90;;;;;;5076129;28;20066;-71
2021/12/05 15:10:53;;;;;;;6.00;4.38;;;5.70;99.90;;;;;;5075597;28;20040;-70
2021/12/05 15:13:19;;;;;;;8.57;4.90;;;5.70;99.90;;;;;;5092607;28;20101;-71
2021/12/05 15:15:45;;;;;;;6.88;4.38;;;5.70;99.90;;;;;;5092633;28;20075;-71
2021/12/05 15:18:32;;;;;;;5.72;4.20;;;5.70;99.90;;;;;;5092857;28;20043;-71
2021/12/05 15:20:59;;;;;;;8.15;5.25;;;5.80;99.90;;;;;;5092268;28;20158;-71
2021/12/05 15:23:29;;;;;;;7.05;4.68;;;5.70;99.90;;;;;;5093178;28;20032;-71
2021/12/05 15:25:59;;;;;;;6.88;4.32;;;5.70;99.90;;;;;;5092675;28;20465;-71
2021/12/05 15:28:25;;;;;;;8.70;5.25;;;5.70;99.90;;;;;;5092732;28;20032;-71
2021/12/05 15:30:51;;;;;;;9.88;4.78;;;5.70;99.90;;;;;;5092272;28;20051;-71
2021/12/05 15:33:24;;;;;;;9.98;5.20;;;5.70;99.90;;;;;;5091942;28;20043;-70
2021/12/05 15:35:51;;;;;;;7.95;5.30;;;5.60;99.90;;;;;;5089519;28;20135;-72
2021/12/05 15:38:24;;;;;;;6.30;4.90;;;5.60;99.90;;;;;;5090572;28;20032;-71
2021/12/05 15:40:58;;;;;;;9.43;5.40;;;5.60;99.90;;;;;;5090056;28;20129;-71
2021/12/05 15:43:26;;;;;;;8.48;5.10;;;5.60;99.90;;;;;;5092152;28;20488;-71
2021/12/05 15:45:55;;;;;;;13.88;6.38;;;5.60;99.90;;;;;;5092889;28;20036;-71
2021/12/05 15:48:33;;;;;;;19.08;8.98;;;5.50;99.90;;;;;;5075831;28;20040;-71
2021/12/05 15:51:01;;;;;;;10.70;6.57;;;5.60;99.90;;;;;;5092043;28;20461;-71
2021/12/05 15:53:30;;;;;;;12.07;6.75;;;5.60;99.90;;;;;;5082794;28;20063;-71
2021/12/05 15:56:02;;;;;;;8.48;6.05;;;5.50;99.90;;;;;;5072227;28;20128;-70
2021/12/05 15:58:31;;;;;;;12.25;6.40;;;5.50;99.90;;;;;;5072130;28;20051;-72
2021/12/05 16:01:12;;;;;;;9.10;6.40;;;5.50;99.90;;;;;;5091002;28;20068;-71
2021/12/05 16:03:50;;;;;;;9.93;5.70;;;5.40;99.90;;;;;;5092398;28;20040;-72
2021/12/05 16:06:18;;;;;;;9.60;6.38;;;5.40;99.90;;;;;;5075779;28;20487;-71
2021/12/05 16:08:49;;;;;;;7.88;5.53;;;5.30;99.90;;;;;;5092153;28;20085;-71
2021/12/05 16:11:17;;;;;;;10.40;6.25;;;5.30;99.90;;;;;;5055180;28;20279;-70
2021/12/05 16:13:46;;;;;;;11.23;7.30;;;5.30;99.90;;;;;;5055328;28;20060;-70
2021/12/05 16:16:19;;;;;;;15.93;9.25;;;5.30;99.90;;;;;;5072054;28;20353;-70
2021/12/05 16:18:49;;;;;;;11.82;8.00;;;5.40;99.90;;;;;;5073154;28;20054;-69
2021/12/05 16:21:22;;;;;;;13.05;8.10;;;5.40;99.90;;;;;;5071758;28;20056;-70
2021/12/05 16:23:49;;;;;;;11.95;8.57;;;5.30;99.90;;;;;;5072349;28;20093;-70
2021/12/05 16:26:22;;;;;;;13.32;8.23;;;5.20;99.90;;;;;;5091146;28;20048;-70
2021/12/05 16:28:54;;;;;;;12.15;8.25;;;5.20;99.90;;;;;;5091980;28;20035;-70
2021/12/05 16:31:33;;;;;;;13.23;8.85;;;5.30;99.90;;;;;;5091969;28;20407;-70
2021/12/05 16:34:06;;;;;;;14.10;8.57;;;5.30;99.90;;;;;;5092280;28;20036;-70
2021/12/05 16:36:42;;;;;;;12.00;8.70;;;5.30;99.90;;;;;;5092132;28;20043;-70
2021/12/05 16:39:18;;;;;;;14.73;8.88;;;5.30;99.90;;;;;;5091863;28;20369;-69
2021/12/05 16:41:48;;;;;;;13.15;9.57;;;5.30;99.90;;;;;;5091733;28;20413;-70
2021/12/05 16:44:19;;;;;;;12.57;9.35;;;5.30;99.90;;;;;;5093708;28;20075;-70
2021/12/05 16:46:49;;;;;;;15.93;11.13;;;5.20;99.90;;;;;;5095705;28;20044;-70
2021/12/05 16:49:25;;;;;;;14.90;11.07;;;5.30;99.90;;;;;;5095524;28;20040;-71
2021/12/05 16:51:54;;;;;;;17.40;11.35;;;5.30;99.90;;;;;;5095538;28;20051;-71
2021/12/05 16:54:33;;;;;;;18.33;12.00;;;5.40;99.90;;;;;;5062139;28;20477;-70
2021/12/05 16:57:08;;;;;;;18.70;12.77;;;5.40;99.90;;;;;;5075308;28;20040;-70
2021/12/05 16:59:57;;;;;;;18.63;12.93;;;5.30;99.90;;;;;;5082901;28;20073;-70
2021/12/05 17:02:31;;;;;;;16.52;12.18;;;5.20;99.90;;;;;;5095302;28;20154;-70
2021/12/05 17:05:07;;;;;;;;;;;5.30;99.90;;;;;;5095861;28;20113;-70
2021/12/05 17:07:38;;;;;;;;;;;5.20;99.90;;;;;;5095851;28;19916;-70
2021/12/05 17:10:10;;;;;;;15.80;11.52;;;5.20;99.90;;;;;;5094960;28;19920;-70
2021/12/05 17:12:37;;;;;;;12.70;10.10;;;5.10;99.90;;;;;;5078100;28;20055;-70
2021/12/05 17:15:30;;;;;;;14.32;10.35;;;5.10;99.90;;;;;;5095119;28;20048;-70
2021/12/05 17:18:03;;;;;;;13.25;9.90;;;5.10;99.90;;;;;;5091218;28;20044;-70
2021/12/05 17:20:33;;;;;;;12.02;8.50;;;5.10;99.90;;;;;;5094617;28;20040;-70
2021/12/05 17:23:14;;;;;;;12.13;8.52;;;5.00;99.90;;;;;;5078328;28;20040;-70
2021/12/05 17:25:46;;;;;;;14.57;8.48;;;5.10;99.90;;;;;;5095319;28;20048;-70
2021/12/05 17:28:17;;;;;;;11.98;7.50;;;5.10;99.90;;;;;;5094912;28;20123;-70
2021/12/05 17:30:55;;;;;;;11.85;7.20;;;5.10;99.90;;;;;;5094226;28;20061;-71
2021/12/05 17:33:36;;;;;;;11.25;8.52;;;5.10;99.90;;;;;;5078123;28;20144;-71
2021/12/05 17:36:25;;;;;;;12.68;8.18;;;5.10;99.90;;;;;;5095267;28;20051;-70
2021/12/05 17:38:57;;;;;;;12.82;8.07;;;5.10;99.90;;;;;;5094770;28;20043;-70
2021/12/05 17:41:25;;;;;;;11.25;8.27;;;5.10;99.90;;;;;;5094608;28;20044;-71
2021/12/05 17:43:50;;;;;;;10.88;7.75;;;5.10;99.90;;;;;;5077935;28;20055;-71
2021/12/05 17:46:17;;;;;;;12.25;8.10;;;5.10;99.90;;;;;;5094580;28;20047;-70
2021/12/05 17:48:43;;;;;;;13.60;9.35;;;5.10;99.90;;;;;;5077525;28;20054;-70
2021/12/05 17:51:09;;;;;;;13.38;9.32;;;5.20;99.90;;;;;;5094126;28;20051;-70
2021/12/05 17:53:37;;;;;;;16.23;9.93;;;5.20;99.90;;;;;;5083786;28;20040;-71
2021/12/05 17:56:15;;;;;;;14.32;9.85;;;5.30;99.90;;;;;;5073656;28;20036;-69
2021/12/05 18:03:56;;;;;;;14.02;8.88;;;5.40;99.90;;;;;;5094322;28;20111;-71
2021/12/05 18:06:23;;;;;;;12.63;7.82;;;5.40;99.90;;;;;;5094597;28;20061;-70
2021/12/05 18:08:49;;;;;;;10.40;7.75;;;5.40;99.90;;;;;;5094901;28;20044;-70
2021/12/05 18:11:22;;;;;;;12.25;9.02;;;5.40;99.90;;;;;;5093814;28;20048;-71
2021/12/05 18:13:54;;;;;;;14.75;9.35;;;5.40;99.90;;;;;;5077276;28;20090;-70
2021/12/05 18:16:25;;;;;;;12.88;10.27;;;5.50;99.90;;;;;;5094042;28;20036;-70
2021/12/05 18:18:56;;;;;;;17.70;10.70;;;5.40;99.90;;;;;;5094092;28;20040;-71
2021/12/05 18:21:24;;;;;;;18.23;11.40;;;5.30;99.90;;;;;;5073555;28;20461;-70
2021/12/05 18:23:50;;;;;;;17.73;12.10;;;5.30;99.90;;;;;;5073871;28;20048;-70
2021/12/05 18:26:16;;;;;;;16.27;10.95;;;5.30;99.90;;;;;;5093259;28;20040;-69
2021/12/05 18:28:45;;;;;;;14.45;10.15;;;5.30;99.90;;;;;;5093963;28;20036;-69
2021/12/05 18:31:17;;;;;;;16.33;11.05;;;5.20;99.90;;;;;;5093237;28;20460;-70
2021/12/05 18:33:44;;;;;;;20.58;13.05;;;5.30;99.90;;;;;;5093837;28;20055;-70
2021/12/05 18:36:10;;;;;;;19.90;13.40;;;5.30;99.90;;;;;;5076908;28;20456;-71
2021/12/05 18:38:38;;;;;;;16.80;11.30;;;5.30;99.90;;;;;;5093617;28;20039;-70
2021/12/05 18:41:08;;;;;;;19.67;11.68;;;5.40;99.90;;;;;;5093266;28;20173;-69
2021/12/05 18:43:35;;;;;;;20.50;12.23;;;5.40;99.90;;;;;;5093510;28;20365;-70
2021/12/05 18:46:01;;;;;;;20.75;14.23;;;5.40;99.90;;;;;;5076739;28;20036;-70
2021/12/05 18:48:27;;;;;;;15.93;12.05;;;5.40;99.90;;;;;;5093437;28;20407;-70
2021/12/05 18:50:52;;;;;;;12.55;9.68;;;5.40;99.90;;;;;;5092994;28;20047;-70
2021/12/05 18:53:18;;;;;;;13.77;10.80;;;5.40;99.90;;;;;;5085002;28;20063;-70